Copalis Beach, Washington
Current Conditions -  °F | °C
As of 3:53 PM on Sunday 23 Nov 2014 (Local Time) from KHQM Reporting Station
Haze Haze  
Wind Chill: 53°   Ceiling: Unl
Heat Index: 53°   Visibility: 6mi
Dew Point: 44°   Wind: 10mph
Humidity: 71%   Direction: 270°W
Pressure: 30.23"   Gusts: NA
Location:  47.11°N, 124.18°W
Report Text: KHQM 232353Z AUTO 27009KT 6SM HZ CLR 12/07 A3023 RMK AO2 SLP240 T01170067 10128 20106 51014
Loading
Personal Weather Stations






























Interactive Weather Map New forecast layout! Learn more

10-Day Weather Forecast

Advertisements
Track Severe Weather on mobile